sensor_id;sensor_type;location;lat;lon;timestamp;pressure;altitude;pressure_sealevel;temperature;humidity
20942;BME280;10630;53.734;10.282;2023-03-14T00:03:54;98392.66;;;16.79;63.42
20942;BME280;10630;53.734;10.282;2023-03-14T00:06:38;98374.59;;;16.54;63.48
20942;BME280;10630;53.734;10.282;2023-03-14T00:09:05;98381.81;;;16.43;65.40
20942;BME280;10630;53.734;10.282;2023-03-14T00:11:33;98382.41;;;16.02;66.43
20942;BME280;10630;53.734;10.282;2023-03-14T00:14:00;98393.78;;;16.20;66.18
20942;BME280;10630;53.734;10.282;2023-03-14T00:16:27;98397.41;;;16.56;65.13
20942;BME280;10630;53.734;10.282;2023-03-14T00:18:54;98385.81;;;16.40;66.65
20942;BME280;10630;53.734;10.282;2023-03-14T00:21:21;98390.81;;;16.80;64.40
20942;BME280;10630;53.734;10.282;2023-03-14T00:23:49;98395.13;;;16.91;63.36
20942;BME280;10630;53.734;10.282;2023-03-14T00:26:25;98407.19;;;16.20;64.82
20942;BME280;10630;53.734;10.282;2023-03-14T00:28:52;98400.44;;;16.65;65.10
20942;BME280;10630;53.734;10.282;2023-03-14T00:31:28;98391.91;;;16.25;67.19
20942;BME280;10630;53.734;10.282;2023-03-14T00:33:55;98393.63;;;15.94;69.17
20942;BME280;10630;53.734;10.282;2023-03-14T00:36:23;98390.19;;;16.04;70.20
20942;BME280;10630;53.734;10.282;2023-03-14T00:38:51;98388.41;;;16.20;70.59
20942;BME280;10630;53.734;10.282;2023-03-14T00:41:20;98386.38;;;16.42;69.42
20942;BME280;10630;53.734;10.282;2023-03-14T00:43:48;98375.94;;;16.56;68.67
20942;BME280;10630;53.734;10.282;2023-03-14T00:46:16;98368.97;;;15.97;68.02
20942;BME280;10630;53.734;10.282;2023-03-14T00:48:44;98375.66;;;16.53;67.74
20942;BME280;10630;53.734;10.282;2023-03-14T00:51:12;98369.72;;;16.45;68.19
20942;BME280;10630;53.734;10.282;2023-03-14T00:53:42;98363.06;;;16.64;66.02
20942;BME280;10630;53.734;10.282;2023-03-14T00:56:11;98355.47;;;16.40;66.03
20942;BME280;10630;53.734;10.282;2023-03-14T00:58:39;98344.44;;;16.31;64.92
20942;BME280;10630;53.734;10.282;2023-03-14T01:01:07;98342.38;;;16.59;65.25
20942;BME280;10630;53.734;10.282;2023-03-14T01:03:35;98351.78;;;16.56;65.37
20942;BME280;10630;53.734;10.282;2023-03-14T01:06:09;98355.25;;;16.46;65.56
20942;BME280;10630;53.734;10.282;2023-03-14T01:08:37;98356.88;;;16.53;63.83
20942;BME280;10630;53.734;10.282;2023-03-14T01:11:16;98361.88;;;16.97;62.79
20942;BME280;10630;53.734;10.282;2023-03-14T01:13:44;98370.84;;;16.60;64.53
20942;BME280;10630;53.734;10.282;2023-03-14T01:16:11;98378.13;;;16.65;63.82
20942;BME280;10630;53.734;10.282;2023-03-14T01:18:41;98376.31;;;16.91;63.26
20942;BME280;10630;53.734;10.282;2023-03-14T01:21:20;98380.16;;;17.21;61.36
20942;BME280;10630;53.734;10.282;2023-03-14T01:23:48;98383.38;;;17.28;61.99
20942;BME280;10630;53.734;10.282;2023-03-14T01:26:17;98389.19;;;16.78;63.65
20942;BME280;10630;53.734;10.282;2023-03-14T01:28:55;98382.69;;;16.64;64.60
20942;BME280;10630;53.734;10.282;2023-03-14T01:31:23;98384.78;;;16.52;65.79
20942;BME280;10630;53.734;10.282;2023-03-14T01:33:50;98392.94;;;16.72;64.93
20942;BME280;10630;53.734;10.282;2023-03-14T01:36:18;98385.94;;;16.76;64.07
20942;BME280;10630;53.734;10.282;2023-03-14T01:38:45;98371.56;;;17.03;63.75
20942;BME280;10630;53.734;10.282;2023-03-14T01:41:15;98365.91;;;17.05;61.98
20942;BME280;10630;53.734;10.282;2023-03-14T01:43:43;98354.25;;;16.05;67.10
20942;BME280;10630;53.734;10.282;2023-03-14T01:51:13;98317.78;;;16.88;62.00
20942;BME280;10630;53.734;10.282;2023-03-14T01:53:42;98308.59;;;16.58;62.81
20942;BME280;10630;53.734;10.282;2023-03-14T01:56:11;98310.00;;;16.97;63.13
20942;BME280;10630;53.734;10.282;2023-03-14T01:58:49;98315.03;;;16.62;63.85
20942;BME280;10630;53.734;10.282;2023-03-14T02:01:19;98309.50;;;17.20;62.10
20942;BME280;10630;53.734;10.282;2023-03-14T02:03:54;98308.13;;;17.23;61.76
20942;BME280;10630;53.734;10.282;2023-03-14T02:06:30;98316.69;;;16.78;62.76
20942;BME280;10630;53.734;10.282;2023-03-14T02:09:00;98325.25;;;16.70;63.73
20942;BME280;10630;53.734;10.282;2023-03-14T02:11:29;98326.94;;;17.02;62.89
20942;BME280;10630;53.734;10.282;2023-03-14T02:13:57;98319.97;;;17.48;61.01
20942;BME280;10630;53.734;10.282;2023-03-14T02:16:24;98315.31;;;16.71;64.37
20942;BME280;10630;53.734;10.282;2023-03-14T02:18:52;98296.25;;;16.77;64.92
20942;BME280;10630;53.734;10.282;2023-03-14T02:21:23;98290.06;;;16.72;64.41
20942;BME280;10630;53.734;10.282;2023-03-14T02:24:04;98288.78;;;16.95;64.85
20942;BME280;10630;53.734;10.282;2023-03-14T02:26:38;98270.47;;;16.71;65.50
20942;BME280;10630;53.734;10.282;2023-03-14T02:29:09;98249.00;;;16.76;65.71
20942;BME280;10630;53.734;10.282;2023-03-14T02:31:35;98250.03;;;16.50;65.23
20942;BME280;10630;53.734;10.282;2023-03-14T02:34:02;98248.44;;;16.43;68.77
20942;BME280;10630;53.734;10.282;2023-03-14T02:36:30;98250.56;;;16.46;67.65
20942;BME280;10630;53.734;10.282;2023-03-14T02:39:08;98250.81;;;16.40;69.41
20942;BME280;10630;53.734;10.282;2023-03-14T02:41:39;98269.00;;;16.17;69.13
20942;BME280;10630;53.734;10.282;2023-03-14T02:44:06;98265.97;;;15.98;69.83
20942;BME280;10630;53.734;10.282;2023-03-14T02:46:34;98259.44;;;16.57;68.16
20942;BME280;10630;53.734;10.282;2023-03-14T02:49:07;98259.13;;;16.28;68.67
20942;BME280;10630;53.734;10.282;2023-03-14T02:51:35;98266.06;;;16.24;68.47
20942;BME280;10630;53.734;10.282;2023-03-14T02:54:02;98261.31;;;16.41;68.62
20942;BME280;10630;53.734;10.282;2023-03-14T02:56:29;98272.53;;;16.33;68.40
20942;BME280;10630;53.734;10.282;2023-03-14T02:58:57;98279.81;;;16.43;68.02
20942;BME280;10630;53.734;10.282;2023-03-14T03:01:26;98276.84;;;16.44;68.16
20942;BME280;10630;53.734;10.282;2023-03-14T03:03:53;98275.06;;;15.92;70.09
20942;BME280;10630;53.734;10.282;2023-03-14T03:06:20;98274.88;;;16.09;69.50
20942;BME280;10630;53.734;10.282;2023-03-14T03:08:49;98273.50;;;16.01;71.10
20942;BME280;10630;53.734;10.282;2023-03-14T03:11:16;98272.44;;;16.02;70.57
20942;BME280;10630;53.734;10.282;2023-03-14T03:13:55;98268.53;;;15.77;70.45
20942;BME280;10630;53.734;10.282;2023-03-14T03:16:23;98258.97;;;15.92;70.91
20942;BME280;10630;53.734;10.282;2023-03-14T03:18:53;98261.69;;;15.97;71.35
20942;BME280;10630;53.734;10.282;2023-03-14T03:21:20;98261.56;;;16.45;66.71
20942;BME280;10630;53.734;10.282;2023-03-14T03:23:52;98259.69;;;16.45;68.49
20942;BME280;10630;53.734;10.282;2023-03-14T03:26:19;98254.72;;;16.06;69.92
20942;BME280;10630;53.734;10.282;2023-03-14T03:28:54;98255.41;;;16.60;68.76
20942;BME280;10630;53.734;10.282;2023-03-14T03:31:21;98124.00;;;15.71;66.86
20942;BME280;10630;53.734;10.282;2023-03-14T03:33:49;98249.19;;;15.70;70.15
20942;BME280;10630;53.734;10.282;2023-03-14T03:36:22;98230.81;;;15.94;71.11
20942;BME280;10630;53.734;10.282;2023-03-14T03:38:51;98233.41;;;16.63;68.70
20942;BME280;10630;53.734;10.282;2023-03-14T03:41:19;98223.50;;;16.95;65.48
20942;BME280;10630;53.734;10.282;2023-03-14T03:46:18;98224.00;;;15.71;71.99
20942;BME280;10630;53.734;10.282;2023-03-14T03:48:46;98215.41;;;16.53;69.12
20942;BME280;10630;53.734;10.282;2023-03-14T03:51:15;98212.50;;;15.76;70.43
20942;BME280;10630;53.734;10.282;2023-03-14T03:53:45;98208.97;;;16.39;68.50
20942;BME280;10630;53.734;10.282;2023-03-14T03:56:15;98203.28;;;16.30;68.96
20942;BME280;10630;53.734;10.282;2023-03-14T04:01:30;98203.25;;;16.14;70.61
20942;BME280;10630;53.734;10.282;2023-03-14T04:03:57;98197.69;;;16.57;68.33
20942;BME280;10630;53.734;10.282;2023-03-14T04:06:24;98192.88;;;16.70;67.37
20942;BME280;10630;53.734;10.282;2023-03-14T04:08:53;98193.38;;;16.30;68.45
20942;BME280;10630;53.734;10.282;2023-03-14T04:11:21;98196.91;;;16.57;67.96
20942;BME280;10630;53.734;10.282;2023-03-14T04:13:49;98184.28;;;16.47;66.67
20942;BME280;10630;53.734;10.282;2023-03-14T04:16:17;98193.06;;;16.22;68.26
20942;BME280;10630;53.734;10.282;2023-03-14T04:18:48;98194.41;;;16.09;68.86
20942;BME280;10630;53.734;10.282;2023-03-14T04:21:15;98186.59;;;16.07;68.30
20942;BME280;10630;53.734;10.282;2023-03-14T04:26:42;98182.84;;;16.08;70.04
20942;BME280;10630;53.734;10.282;2023-03-14T04:29:22;98185.06;;;16.37;68.31
20942;BME280;10630;53.734;10.282;2023-03-14T04:31:49;98187.22;;;16.35;67.18
20942;BME280;10630;53.734;10.282;2023-03-14T04:34:17;98184.16;;;15.95;69.52
20942;BME280;10630;53.734;10.282;2023-03-14T04:36:44;98181.47;;;15.85;71.22
20942;BME280;10630;53.734;10.282;2023-03-14T04:39:12;98180.22;;;16.24;70.11
20942;BME280;10630;53.734;10.282;2023-03-14T04:41:45;98169.94;;;15.90;70.75
20942;BME280;10630;53.734;10.282;2023-03-14T04:44:13;98170.94;;;15.78;70.94
20942;BME280;10630;53.734;10.282;2023-03-14T04:46:40;98162.78;;;16.37;69.86
20942;BME280;10630;53.734;10.282;2023-03-14T04:49:15;98167.09;;;16.64;68.05
20942;BME280;10630;53.734;10.282;2023-03-14T04:51:42;98164.16;;;16.96;66.90
20942;BME280;10630;53.734;10.282;2023-03-14T04:54:10;98153.38;;;16.44;66.68
20942;BME280;10630;53.734;10.282;2023-03-14T04:56:37;98166.22;;;16.01;68.54
20942;BME280;10630;53.734;10.282;2023-03-14T04:59:06;98168.94;;;16.17;68.14
20942;BME280;10630;53.734;10.282;2023-03-14T05:01:49;98161.91;;;15.90;69.28
20942;BME280;10630;53.734;10.282;2023-03-14T05:04:17;98151.75;;;16.07;68.90
20942;BME280;10630;53.734;10.282;2023-03-14T05:06:44;98161.13;;;16.05;68.01
20942;BME280;10630;53.734;10.282;2023-03-14T05:09:11;98168.44;;;16.71;66.33
20942;BME280;10630;53.734;10.282;2023-03-14T05:11:41;98177.22;;;16.05;66.94
20942;BME280;10630;53.734;10.282;2023-03-14T05:14:08;98177.44;;;15.93;66.48
20942;BME280;10630;53.734;10.282;2023-03-14T05:16:37;98175.44;;;15.14;65.36
20942;BME280;10630;53.734;10.282;2023-03-14T05:19:06;98180.31;;;15.76;64.01
20942;BME280;10630;53.734;10.282;2023-03-14T05:21:33;98177.56;;;15.55;64.56
20942;BME280;10630;53.734;10.282;2023-03-14T05:24:02;98169.69;;;15.96;63.45
20942;BME280;10630;53.734;10.282;2023-03-14T05:26:30;98163.28;;;15.44;64.79
20942;BME280;10630;53.734;10.282;2023-03-14T05:29:06;98162.38;;;15.81;62.66
20942;BME280;10630;53.734;10.282;2023-03-14T05:31:33;98171.84;;;15.36;64.31
20942;BME280;10630;53.734;10.282;2023-03-14T05:34:01;98184.44;;;14.33;68.38
20942;BME280;10630;53.734;10.282;2023-03-14T05:36:38;98165.34;;;13.74;79.45
20942;BME280;10630;53.734;10.282;2023-03-14T05:39:04;98169.28;;;13.67;80.87
20942;BME280;10630;53.734;10.282;2023-03-14T05:41:32;98170.03;;;14.39;84.23
20942;BME280;10630;53.734;10.282;2023-03-14T05:44:02;98163.94;;;13.44;87.98
20942;BME280;10630;53.734;10.282;2023-03-14T05:46:29;98159.28;;;13.79;89.16
20942;BME280;10630;53.734;10.282;2023-03-14T05:49:00;98146.69;;;14.02;89.01
20942;BME280;10630;53.734;10.282;2023-03-14T05:51:27;98150.16;;;14.30;88.90
20942;BME280;10630;53.734;10.282;2023-03-14T05:53:54;98150.22;;;14.67;83.94
20942;BME280;10630;53.734;10.282;2023-03-14T05:56:23;98149.19;;;15.11;84.07
20942;BME280;10630;53.734;10.282;2023-03-14T05:58:52;98153.78;;;14.18;87.88
20942;BME280;10630;53.734;10.282;2023-03-14T06:01:20;98148.91;;;14.70;86.16
20942;BME280;10630;53.734;10.282;2023-03-14T06:03:49;98150.09;;;14.84;84.25
20942;BME280;10630;53.734;10.282;2023-03-14T06:06:16;98147.84;;;14.38;86.00
20942;BME280;10630;53.734;10.282;2023-03-14T06:08:50;98153.00;;;15.21;83.17
20942;BME280;10630;53.734;10.282;2023-03-14T06:11:17;98144.53;;;14.91;82.81
20942;BME280;10630;53.734;10.282;2023-03-14T06:13:44;98138.06;;;15.35;81.49
20942;BME280;10630;53.734;10.282;2023-03-14T06:16:12;98141.19;;;15.16;80.59
20942;BME280;10630;53.734;10.282;2023-03-14T06:18:40;98136.28;;;15.03;81.10
20942;BME280;10630;53.734;10.282;2023-03-14T06:21:07;98136.41;;;15.24;81.07
20942;BME280;10630;53.734;10.282;2023-03-14T06:23:43;98137.09;;;15.62;80.23
20942;BME280;10630;53.734;10.282;2023-03-14T06:26:11;98139.53;;;15.05;80.98
20942;BME280;10630;53.734;10.282;2023-03-14T06:28:40;98136.00;;;14.99;81.13
20942;BME280;10630;53.734;10.282;2023-03-14T06:31:07;98136.56;;;15.07;82.18
20942;BME280;10630;53.734;10.282;2023-03-14T06:33:35;98147.38;;;15.17;84.35
20942;BME280;10630;53.734;10.282;2023-03-14T06:36:02;98139.69;;;14.61;86.73
20942;BME280;10630;53.734;10.282;2023-03-14T06:38:29;98147.75;;;15.41;84.44
20942;BME280;10630;53.734;10.282;2023-03-14T06:40:55;98141.19;;;15.16;82.85
20942;BME280;10630;53.734;10.282;2023-03-14T06:43:22;98146.25;;;15.13;86.18
20942;BME280;10630;53.734;10.282;2023-03-14T06:45:49;98144.69;;;14.74;89.02
20942;BME280;10630;53.734;10.282;2023-03-14T06:48:16;98145.28;;;14.86;89.29
20942;BME280;10630;53.734;10.282;2023-03-14T06:50:42;98142.03;;;14.79;90.90
20942;BME280;10630;53.734;10.282;2023-03-14T06:53:09;98157.31;;;15.27;87.61
20942;BME280;10630;53.734;10.282;2023-03-14T06:55:36;98164.88;;;15.35;86.09
20942;BME280;10630;53.734;10.282;2023-03-14T06:58:03;98173.56;;;14.72;92.02
20942;BME280;10630;53.734;10.282;2023-03-14T07:00:30;98186.22;;;14.82;91.39
20942;BME280;10630;53.734;10.282;2023-03-14T07:02:57;98181.25;;;15.01;90.32
20942;BME280;10630;53.734;10.282;2023-03-14T07:05:24;98190.59;;;14.93;89.67
20942;BME280;10630;53.734;10.282;2023-03-14T07:07:51;98190.38;;;14.40;91.91
20942;BME280;10630;53.734;10.282;2023-03-14T07:10:18;98178.19;;;14.82;89.15
20942;BME280;10630;53.734;10.282;2023-03-14T07:12:45;98177.44;;;14.92;88.66
20942;BME280;10630;53.734;10.282;2023-03-14T07:15:12;98183.16;;;15.00;88.26
20942;BME280;10630;53.734;10.282;2023-03-14T07:17:45;98175.16;;;15.11;87.04
20942;BME280;10630;53.734;10.282;2023-03-14T07:20:12;98189.75;;;15.30;85.44
20942;BME280;10630;53.734;10.282;2023-03-14T07:22:39;98201.31;;;14.93;86.33
20942;BME280;10630;53.734;10.282;2023-03-14T07:25:06;98205.75;;;15.20;87.33
20942;BME280;10630;53.734;10.282;2023-03-14T07:27:35;98193.13;;;15.15;85.77
20942;BME280;10630;53.734;10.282;2023-03-14T07:30:02;98204.16;;;14.81;85.99
20942;BME280;10630;53.734;10.282;2023-03-14T07:32:28;98201.44;;;15.14;84.88
20942;BME280;10630;53.734;10.282;2023-03-14T07:34:55;98195.44;;;15.44;79.92
20942;BME280;10630;53.734;10.282;2023-03-14T07:37:22;98198.09;;;14.64;84.06
20942;BME280;10630;53.734;10.282;2023-03-14T07:39:49;98204.41;;;14.52;85.41
20942;BME280;10630;53.734;10.282;2023-03-14T07:42:16;98197.69;;;15.15;83.47
20942;BME280;10630;53.734;10.282;2023-03-14T07:44:45;98207.06;;;14.52;83.08
20942;BME280;10630;53.734;10.282;2023-03-14T07:47:11;98203.75;;;14.40;85.34
20942;BME280;10630;53.734;10.282;2023-03-14T07:49:38;98209.34;;;15.36;82.17
20942;BME280;10630;53.734;10.282;2023-03-14T07:52:05;98206.06;;;15.82;79.03
20942;BME280;10630;53.734;10.282;2023-03-14T07:54:31;98216.06;;;15.87;76.53
20942;BME280;10630;53.734;10.282;2023-03-14T07:56:58;98218.84;;;15.59;77.09
20942;BME280;10630;53.734;10.282;2023-03-14T07:59:27;98220.38;;;15.40;78.58
20942;BME280;10630;53.734;10.282;2023-03-14T08:01:54;98213.84;;;15.78;76.90
20942;BME280;10630;53.734;10.282;2023-03-14T08:04:20;98214.41;;;15.80;75.57
20942;BME280;10630;53.734;10.282;2023-03-14T08:06:48;98224.28;;;15.75;76.58
20942;BME280;10630;53.734;10.282;2023-03-14T08:09:15;98222.22;;;15.39;77.13
20942;BME280;10630;53.734;10.282;2023-03-14T08:11:42;98221.34;;;15.28;80.31
20942;BME280;10630;53.734;10.282;2023-03-14T08:14:09;98218.06;;;15.59;79.06
20942;BME280;10630;53.734;10.282;2023-03-14T08:16:37;98217.00;;;15.65;78.93
20942;BME280;10630;53.734;10.282;2023-03-14T08:19:05;98209.09;;;15.91;76.55
20942;BME280;10630;53.734;10.282;2023-03-14T08:21:32;98206.84;;;15.72;76.44
20942;BME280;10630;53.734;10.282;2023-03-14T08:23:59;98205.47;;;15.16;78.48
20942;BME280;10630;53.734;10.282;2023-03-14T08:26:26;98213.69;;;15.42;79.18
20942;BME280;10630;53.734;10.282;2023-03-14T08:28:53;98207.28;;;15.54;77.96
20942;BME280;10630;53.734;10.282;2023-03-14T08:31:20;98203.16;;;15.35;80.26
20942;BME280;10630;53.734;10.282;2023-03-14T08:33:50;98214.06;;;15.66;75.92
20942;BME280;10630;53.734;10.282;2023-03-14T08:36:18;98204.66;;;15.59;76.41
20942;BME280;10630;53.734;10.282;2023-03-14T08:38:49;98203.63;;;15.70;75.11
20942;BME280;10630;53.734;10.282;2023-03-14T08:41:16;98195.13;;;15.30;76.67
20942;BME280;10630;53.734;10.282;2023-03-14T08:43:43;98202.41;;;15.45;75.38
20942;BME280;10630;53.734;10.282;2023-03-14T08:46:10;98199.19;;;15.96;73.65
20942;BME280;10630;53.734;10.282;2023-03-14T08:48:37;98200.16;;;15.80;72.57
20942;BME280;10630;53.734;10.282;2023-03-14T08:51:08;98206.28;;;15.70;74.37
20942;BME280;10630;53.734;10.282;2023-03-14T08:53:34;98207.06;;;15.65;74.94
20942;BME280;10630;53.734;10.282;2023-03-14T08:56:01;98200.81;;;15.44;74.98
20942;BME280;10630;53.734;10.282;2023-03-14T08:58:28;98208.38;;;16.21;70.87
20942;BME280;10630;53.734;10.282;2023-03-14T09:00:55;98200.38;;;15.68;71.62
20942;BME280;10630;53.734;10.282;2023-03-14T09:03:23;98205.00;;;15.25;75.85
20942;BME280;10630;53.734;10.282;2023-03-14T09:05:51;98211.41;;;15.24;76.14
20942;BME280;10630;53.734;10.282;2023-03-14T09:08:18;98215.00;;;15.88;74.64
20942;BME280;10630;53.734;10.282;2023-03-14T09:10:45;98209.78;;;16.50;73.07
20942;BME280;10630;53.734;10.282;2023-03-14T09:13:13;98211.88;;;16.27;74.07
20942;BME280;10630;53.734;10.282;2023-03-14T09:15:39;98206.44;;;16.06;76.16
20942;BME280;10630;53.734;10.282;2023-03-14T09:18:08;98217.22;;;15.10;80.09
20942;BME280;10630;53.734;10.282;2023-03-14T09:20:36;98207.16;;;15.81;78.23
20942;BME280;10630;53.734;10.282;2023-03-14T09:23:03;98210.53;;;15.56;80.80
20942;BME280;10630;53.734;10.282;2023-03-14T09:25:30;98214.41;;;15.80;79.73
20942;BME280;10630;53.734;10.282;2023-03-14T09:27:57;98213.53;;;16.59;76.26
20942;BME280;10630;53.734;10.282;2023-03-14T09:30:25;98224.00;;;16.50;75.47
20942;BME280;10630;53.734;10.282;2023-03-14T09:32:52;98222.38;;;15.65;77.24
20942;BME280;10630;53.734;10.282;2023-03-14T09:35:25;98222.59;;;16.22;78.31
20942;BME280;10630;53.734;10.282;2023-03-14T09:37:52;98224.47;;;16.26;78.37
20942;BME280;10630;53.734;10.282;2023-03-14T09:40:18;98219.66;;;16.28;77.34
20942;BME280;10630;53.734;10.282;2023-03-14T09:42:52;98221.56;;;16.33;77.18
20942;BME280;10630;53.734;10.282;2023-03-14T09:47:51;98222.81;;;16.00;80.01
20942;BME280;10630;53.734;10.282;2023-03-14T09:50:25;98230.91;;;16.15;80.64
20942;BME280;10630;53.734;10.282;2023-03-14T09:52:55;98228.19;;;15.51;84.39
20942;BME280;10630;53.734;10.282;2023-03-14T09:55:23;98242.31;;;15.85;85.06
20942;BME280;10630;53.734;10.282;2023-03-14T09:57:54;98241.53;;;15.94;82.10
20942;BME280;10630;53.734;10.282;2023-03-14T10:00:26;98249.31;;;15.43;82.74
20942;BME280;10630;53.734;10.282;2023-03-14T10:03:00;98268.69;;;16.08;80.56
20942;BME280;10630;53.734;10.282;2023-03-14T10:05:39;98297.72;;;14.21;95.50
20942;BME280;10630;53.734;10.282;2023-03-14T10:08:11;98320.47;;;14.02;94.09
20942;BME280;10630;53.734;10.282;2023-03-14T10:10:38;98329.66;;;11.93;100.00
20942;BME280;10630;53.734;10.282;2023-03-14T10:13:14;98338.66;;;12.28;100.00
20942;BME280;10630;53.734;10.282;2023-03-14T10:15:43;98348.31;;;12.58;100.00
20942;BME280;10630;53.734;10.282;2023-03-14T10:18:15;98377.72;;;10.66;100.00
20942;BME280;10630;53.734;10.282;2023-03-14T10:20:43;98398.59;;;9.63;100.00
20942;BME280;10630;53.734;10.282;2023-03-14T10:25:41;98410.91;;;10.01;100.00
20942;BME280;10630;53.734;10.282;2023-03-14T10:28:32;98420.97;;;10.18;100.00
20942;BME280;10630;53.734;10.282;2023-03-14T10:30:59;98436.97;;;9.67;100.00
20942;BME280;10630;53.734;10.282;2023-03-14T10:33:27;98453.56;;;9.88;100.00
20942;BME280;10630;53.734;10.282;2023-03-14T10:35:55;98466.34;;;9.72;100.00
20942;BME280;10630;53.734;10.282;2023-03-14T10:38:22;98480.09;;;8.85;100.00
20942;BME280;10630;53.734;10.282;2023-03-14T10:40:51;98486.56;;;9.41;100.00
20942;BME280;10630;53.734;10.282;2023-03-14T10:43:21;98497.38;;;9.01;100.00
20942;BME280;10630;53.734;10.282;2023-03-14T10:45:54;98513.63;;;8.66;100.00
20942;BME280;10630;53.734;10.282;2023-03-14T10:50:55;98543.22;;;8.49;100.00
20942;BME280;10630;53.734;10.282;2023-03-14T10:53:22;98559.44;;;7.66;100.00
20942;BME280;10630;53.734;10.282;2023-03-14T10:55:52;98579.78;;;7.52;100.00
20942;BME280;10630;53.734;10.282;2023-03-14T10:58:23;98584.19;;;7.31;100.00
20942;BME280;10630;53.734;10.282;2023-03-14T11:00:52;98586.09;;;7.51;100.00
20942;BME280;10630;53.734;10.282;2023-03-14T11:03:20;98613.34;;;6.68;100.00
20942;BME280;10630;53.734;10.282;2023-03-14T11:08:20;98642.28;;;6.76;100.00
20942;BME280;10630;53.734;10.282;2023-03-14T11:10:51;98650.97;;;6.70;100.00
20942;BME280;10630;53.734;10.282;2023-03-14T11:16:02;98658.22;;;7.24;100.00
20942;BME280;10630;53.734;10.282;2023-03-14T11:21:21;98689.00;;;6.97;100.00
20942;BME280;10630;53.734;10.282;2023-03-14T11:26:47;98714.25;;;6.49;100.00
20942;BME280;10630;53.734;10.282;2023-03-14T11:31:41;98729.38;;;6.41;100.00
20942;BME280;10630;53.734;10.282;2023-03-14T11:34:15;98728.72;;;7.04;100.00
20942;BME280;10630;53.734;10.282;2023-03-14T11:36:52;98732.28;;;7.18;100.00
20942;BME280;10630;53.734;10.282;2023-03-14T11:39:21;98742.97;;;7.73;100.00
20942;BME280;10630;53.734;10.282;2023-03-14T11:41:51;98740.28;;;7.59;97.82
20942;BME280;10630;53.734;10.282;2023-03-14T11:46:48;98775.13;;;7.35;96.26
20942;BME280;10630;53.734;10.282;2023-03-14T11:52:06;98786.97;;;8.16;89.84
20942;BME280;10630;53.734;10.282;2023-03-14T11:57:03;98798.41;;;8.85;83.40
20942;BME280;10630;53.734;10.282;2023-03-14T11:59:48;98813.69;;;8.14;81.78
20942;BME280;10630;53.734;10.282;2023-03-14T12:07:25;98826.47;;;8.04;82.88
20942;BME280;10630;53.734;10.282;2023-03-14T12:09:57;98835.00;;;7.36;81.64
20942;BME280;10630;53.734;10.282;2023-03-14T12:12:25;98825.94;;;8.77;81.44
20942;BME280;10630;53.734;10.282;2023-03-14T12:14:58;98826.81;;;8.36;76.77
20942;BME280;10630;53.734;10.282;2023-03-14T12:17:27;98835.66;;;7.73;77.42
20942;BME280;10630;53.734;10.282;2023-03-14T12:20:03;98831.41;;;8.14;78.35
20942;BME280;10630;53.734;10.282;2023-03-14T12:22:36;98831.16;;;8.50;75.71
20942;BME280;10630;53.734;10.282;2023-03-14T12:27:48;98847.09;;;8.57;78.51
20942;BME280;10630;53.734;10.282;2023-03-14T12:32:42;98869.50;;;8.13;74.03
20942;BME280;10630;53.734;10.282;2023-03-14T12:37:54;98882.63;;;8.28;75.24
20942;BME280;10630;53.734;10.282;2023-03-14T12:40:26;98893.75;;;9.13;73.75
20942;BME280;10630;53.734;10.282;2023-03-14T12:43:03;98894.97;;;9.17;71.47
20942;BME280;10630;53.734;10.282;2023-03-14T12:45:31;98898.06;;;8.52;72.54
20942;BME280;10630;53.734;10.282;2023-03-14T12:48:09;98887.25;;;9.76;72.76
20942;BME280;10630;53.734;10.282;2023-03-14T12:50:42;98900.22;;;8.77;69.64
20942;BME280;10630;53.734;10.282;2023-03-14T12:56:02;98911.09;;;8.12;73.19
20942;BME280;10630;53.734;10.282;2023-03-14T12:58:35;98909.97;;;8.70;73.80
20942;BME280;10630;53.734;10.282;2023-03-14T13:01:06;98903.94;;;9.03;70.89
20942;BME280;10630;53.734;10.282;2023-03-14T13:03:47;98914.63;;;9.30;68.22
20942;BME280;10630;53.734;10.282;2023-03-14T13:11:49;98945.66;;;9.23;67.89
20942;BME280;10630;53.734;10.282;2023-03-14T13:14:16;98953.03;;;9.74;68.37
20942;BME280;10630;53.734;10.282;2023-03-14T13:16:46;98961.13;;;9.12;68.62
20942;BME280;10630;53.734;10.282;2023-03-14T13:19:19;98971.28;;;9.02;69.01
20942;BME280;10630;53.734;10.282;2023-03-14T13:21:46;98975.88;;;9.35;69.16
20942;BME280;10630;53.734;10.282;2023-03-14T13:24:23;98989.69;;;9.03;69.67
20942;BME280;10630;53.734;10.282;2023-03-14T13:26:57;98998.06;;;9.14;68.50
20942;BME280;10630;53.734;10.282;2023-03-14T13:29:25;99001.81;;;9.33;68.94
20942;BME280;10630;53.734;10.282;2023-03-14T13:31:53;98996.28;;;9.28;69.07
20942;BME280;10630;53.734;10.282;2023-03-14T13:34:21;98999.03;;;9.95;66.48
20942;BME280;10630;53.734;10.282;2023-03-14T13:36:51;99008.63;;;9.96;63.65
20942;BME280;10630;53.734;10.282;2023-03-14T13:39:21;99033.16;;;8.61;62.22
20942;BME280;10630;53.734;10.282;2023-03-14T13:41:57;99038.59;;;8.87;61.65
20942;BME280;10630;53.734;10.282;2023-03-14T13:46:58;99058.47;;;8.70;58.71
20942;BME280;10630;53.734;10.282;2023-03-14T13:49:26;99067.53;;;8.82;58.03
20942;BME280;10630;53.734;10.282;2023-03-14T13:51:55;99077.00;;;8.92;57.29
20942;BME280;10630;53.734;10.282;2023-03-14T13:54:22;99082.88;;;9.29;55.05
20942;BME280;10630;53.734;10.282;2023-03-14T13:56:58;99080.47;;;9.47;53.78
20942;BME280;10630;53.734;10.282;2023-03-14T13:59:29;99100.03;;;9.26;50.84
20942;BME280;10630;53.734;10.282;2023-03-14T14:01:57;99099.22;;;9.32;48.71
20942;BME280;10630;53.734;10.282;2023-03-14T14:04:25;99102.66;;;10.08;48.54
20942;BME280;10630;53.734;10.282;2023-03-14T14:06:58;99113.34;;;8.98;48.89
20942;BME280;10630;53.734;10.282;2023-03-14T14:09:30;99108.19;;;9.31;48.75